Wandt Offshore Inc (WTI) Latest Bloomsberg Price


Mffais Ranking #412 Overall / #19 Industry
Industry: Exploration And Production

Number of Companies: 46 (Ranking #2338 Overall/#60 Industry)
Inflow: $ 17,580 (K) (Ranking #1800 Overall/#48 Industry)
Outflow: $ -1,675 (K)
Mffais Flow: $ 15,905 (K) (Ranking #412 Overall/#19 Industry)


Receive a FREE weekly executive review of stocks moving into the top 10, taking the top industy spot or moving up within their industry. Sent directly to your Inbox every Saturday. Sign up today and get last week's review immediately sent to you.

We value and respect your privacy. Please read our Terms and Conditions which states our firm commitment to your privacy. Your email address will not be shared with a third party, nor will it be sold or used for purposes other than subscription for the weekly review.

Owner CPOR Shares Action Qty Chg Invested (K) Total Current Value (K)
Edge Asset Management Inc 2016-09-30 2,425,350 New Holding 2,425,350 $ 5,044 $ 5,044
Calamos Advisors Llc 2016-09-30 2,273,019 New Holding 2,273,019 $ 4,727 $ 4,727
Phoenix Investment Adviser Llc 2016-09-30 1,355,476 New Holding 1,355,476 $ 2,819 $ 2,819
Icon Advisers Inc Co 2016-09-30 1,480,900 Added More 657,500 $ 1,367 $ 3,080
Css Llc Il 2016-09-30 516,785 New Holding 516,785 $ 1,074 $ 1,074
Panagora Asset Management Inc 2016-09-30 278,816 Added More 273,324 $ 568 $ 579
Mariner Investment Group Llc 2016-09-30 199,985 New Holding 199,985 $ 415 $ 415
Sandler Capital Management 2016-09-30 127,650 New Holding 127,650 $ 265 $ 265
Grt Capital Partners L L C 2016-09-30 119,555 New Holding 119,555 $ 248 $ 248
Kbc Group Nv 2016-09-30 188,562 Added More 114,178 $ 237 $ 392
Kcg Holdings Inc 2016-09-30 147,046 Added More 96,327 $ 200 $ 305
Gardner Lewis Asset Management L P 2016-09-30 85,100 New Holding 85,100 $ 177 $ 177
Horizon Kinetics Llc 2016-09-30 256,321 Added More 61,602 $ 128 $ 533
Cutler Group Lp 2016-09-30 54,500 Added More 52,500 $ 109 $ 113
A R T Advisors Llc 2016-09-30 49,902 New Holding 49,902 $ 103 $ 103
Cubist Systematic Strategies Llc 2016-09-30 23,364 New Holding 23,364 $ 48 $ 48
Northern Trust Corp 2016-09-30 386,705 Added More 12,972 $ 26 $ 804
Tudor Investment Corp Et Al 2016-09-30 25,011 Added More 4,824 $ 10 $ 52
California State Teachers Retirement System 2016-09-30 74,275 Added More 1,700 $ 3 $ 154
Cetera Advisor Networks Llc 2016-09-30 12,377 Added More 730 $ 1 $ 25
Acrospire Investment Management Llc 2016-09-30 8,900 Added More 300 $ 0 $ 18
American International Group Inc 2016-09-30 20,500 Added More 31 $ 0 $ 42
Quotient Investors Llc 2016-09-30 30,700 No Change 0 $ 0 $ 63
Retirement Planning Group 2016-09-30 80,000 No Change 0 $ 0 $ 166
Northwestern Mutual Wealth Management Co 2016-09-30 162 No Change 0 $ 0 $ 0
First Interstate Bank 2016-09-30 200 No Change 0 $ 0 $ 0
Mraz Amerine Associates Inc 2016-09-30 10,000 No Change 0 $ 0 $ 20
Blackrock Inc 2016-09-30 11,822 No Change 0 $ 0 $ 24
Msi Financial Services Inc 2016-09-30 150 No Change 0 $ 0 $ 0
Advisor Group Inc 2016-09-30 21,700 No Change 0 $ 0 $ 45
Bridgeway Capital Management Inc 2016-09-30 753,100 No Change 0 $ 0 $ 1,566
Nationwide Fund Advisors 2016-09-30 22,497 No Change 0 $ 0 $ 46
New York State Common Retirement Fund 2016-09-30 32,100 No Change 0 $ 0 $ 66
Blackrock Japan Co Ltd 2016-09-30 10 No Change 0 $ 0 $ 0
Legal General Group Plc 2016-09-30 6,580 No Change 0 $ 0 $ 13
Ladenburg Thalmann Financial Services Inc 2016-09-30 1,300 No Change 0 $ 0 $ 2
Teachers Advisors Inc 2016-09-30 61,881 No Change 0 $ 0 $ 128
Pnc Financial Services Group Inc 2016-09-30 0 Sold All -234 $ -0 $ 0
Blackrock Investment Management Llc 2016-09-30 151,403 Sold Some -553 $ -1 $ 314
Rhumbline Advisers 2016-09-30 43,677 Sold Some -3,230 $ -6 $ 90
Creative Planning 2016-09-30 1,200 Sold Some -7,581 $ -15 $ 2
Commonwealth Equity Services Inc 2016-09-30 0 Sold All -10,750 $ -22 $ 0
Quantitative Investment Management Llc 2016-09-30 0 Sold All -15,000 $ -31 $ 0
Parametric Portfolio Associates Llc 2016-09-30 791,965 Sold Some -50,933 $ -105 $ 1,647
Spark Investment Management Llc 2016-09-30 233,200 Sold Some -223,969 $ -465 $ 485
Dimensional Fund Advisors Lp 2016-09-30 270,286 Sold Some -493,282 $ -1,026 $ 562